Time;durP1;ratioP1;P1;durP2;ratioP2;P2;SDS_P1;SDS_P2;PMS_P1;PMS_P2;Temp;Humidity;BMP_temperature;BMP_pressure;BME280_temperature;BME280_humidity;BME280_pressure;Samples;Min_cycle;Max_cycle;Signal;HPM_P1;HPM_P2
2021/10/21 00:01:52;;;;;;;18.33;5.63;;;12.80;99.90;;;;;;5094629;27;20492;-68
2021/10/21 00:04:18;;;;;;;14.70;5.13;;;12.80;99.90;;;;;;5098644;28;20054;-67
2021/10/21 00:06:44;;;;;;;18.42;5.90;;;12.80;99.90;;;;;;5096765;27;20036;-68
2021/10/21 00:09:09;;;;;;;16.42;6.60;;;12.90;99.90;;;;;;5095956;27;20044;-68
2021/10/21 00:11:35;;;;;;;19.55;8.98;;;12.80;99.90;;;;;;5097649;27;20031;-68
2021/10/21 00:14:02;;;;;;;20.90;9.35;;;12.90;99.90;;;;;;5099097;28;20122;-68
2021/10/21 00:16:28;;;;;;;19.45;9.98;;;12.90;99.90;;;;;;5096794;28;20485;-68
2021/10/21 00:18:54;;;;;;;22.65;10.00;;;13.00;99.90;;;;;;5095223;28;20063;-68
2021/10/21 00:21:20;;;;;;;19.13;9.45;;;13.00;99.90;;;;;;5098802;27;20036;-68
2021/10/21 00:23:46;;;;;;;19.20;9.77;;;13.00;99.90;;;;;;5094673;28;20383;-68
2021/10/21 00:26:12;;;;;;;18.38;9.43;;;13.00;99.90;;;;;;5093913;27;20054;-68
2021/10/21 00:28:37;;;;;;;22.30;9.50;;;13.10;99.90;;;;;;5096108;28;20112;-68
2021/10/21 00:31:04;;;;;;;24.40;10.43;;;13.10;99.90;;;;;;5096468;28;20032;-68
2021/10/21 00:33:30;;;;;;;18.05;9.90;;;13.10;99.90;;;;;;5095432;27;20354;-68
2021/10/21 00:35:56;;;;;;;16.88;8.70;;;13.10;99.90;;;;;;5095965;28;20077;-68
2021/10/21 00:38:22;;;;;;;15.20;8.43;;;13.10;99.90;;;;;;5094646;28;20039;-67
2021/10/21 00:40:47;;;;;;;16.92;9.15;;;13.10;99.90;;;;;;5096449;27;20050;-68
2021/10/21 00:43:13;;;;;;;14.98;8.18;;;13.10;99.90;;;;;;5095346;28;20053;-68
2021/10/21 00:45:39;;;;;;;19.40;8.98;;;13.10;99.90;;;;;;5100046;28;20039;-68
2021/10/21 00:48:06;;;;;;;12.75;7.43;;;13.10;99.90;;;;;;5092832;28;20044;-68
2021/10/21 00:50:32;;;;;;;13.88;7.65;;;13.10;99.90;;;;;;5096860;28;20035;-68
2021/10/21 00:52:59;;;;;;;12.68;7.68;;;13.10;99.90;;;;;;5094502;28;20036;-68
2021/10/21 00:55:25;;;;;;;16.42;7.38;;;13.10;99.90;;;;;;5095089;28;20595;-68
2021/10/21 00:57:51;;;;;;;10.82;7.50;;;13.10;99.90;;;;;;5095011;28;20393;-68
2021/10/21 01:00:17;;;;;;;13.82;7.18;;;13.10;99.90;;;;;;5096413;28;20032;-68
2021/10/21 01:02:43;;;;;;;24.08;8.68;;;13.10;99.90;;;;;;5095358;28;20039;-68
2021/10/21 01:05:08;;;;;;;14.98;7.97;;;13.10;99.90;;;;;;5098531;28;20051;-68
2021/10/21 01:07:35;;;;;;;12.38;6.82;;;13.10;99.90;;;;;;5095349;28;20040;-68
2021/10/21 01:10:04;;;;;;;18.25;8.07;;;13.10;99.90;;;;;;5096898;28;20035;-68
2021/10/21 01:12:29;;;;;;;21.10;8.38;;;13.10;99.90;;;;;;5095810;28;20032;-68
2021/10/21 01:15:23;;;;;;;14.07;7.47;;;13.10;99.90;;;;;;5094867;28;20074;-68
2021/10/21 01:17:53;;;;;;;13.15;7.32;;;13.10;99.90;;;;;;5094184;28;20126;-68
2021/10/21 01:20:20;;;;;;;20.70;7.95;;;13.10;99.90;;;;;;5123501;27;20047;-68
2021/10/21 01:22:46;;;;;;;14.48;7.70;;;13.10;99.90;;;;;;5094428;28;20090;-68
2021/10/21 01:25:14;;;;;;;14.18;8.05;;;13.00;99.90;;;;;;5095714;28;20059;-69
2021/10/21 01:27:40;;;;;;;13.18;6.75;;;12.90;99.90;;;;;;5096991;28;20154;-68
2021/10/21 01:30:06;;;;;;;15.35;8.32;;;13.00;99.90;;;;;;5095729;28;20027;-68
2021/10/21 01:32:35;;;;;;;15.85;9.00;;;13.00;99.90;;;;;;5096018;28;20081;-68
2021/10/21 01:35:02;;;;;;;21.75;10.05;;;13.00;99.90;;;;;;5096347;28;20047;-68
2021/10/21 01:37:34;;;;;;;11.95;8.07;;;12.90;99.90;;;;;;5124035;27;20048;-68
2021/10/21 01:40:00;;;;;;;11.75;8.30;;;12.90;99.90;;;;;;5097551;28;20051;-68
2021/10/21 01:42:27;;;;;;;15.48;7.72;;;12.90;99.90;;;;;;5097491;28;21116;-67
2021/10/21 01:44:53;;;;;;;13.85;7.53;;;13.00;99.90;;;;;;5096079;28;20042;-68
2021/10/21 01:47:19;;;;;;;12.63;8.25;;;12.90;99.90;;;;;;5094559;28;21107;-68
2021/10/21 01:49:44;;;;;;;11.68;7.30;;;12.90;99.90;;;;;;5096389;28;20039;-68
2021/10/21 01:52:10;;;;;;;13.20;7.22;;;12.90;99.90;;;;;;5096213;28;20081;-68
2021/10/21 01:54:36;;;;;;;12.07;6.32;;;12.90;99.90;;;;;;5095795;28;20497;-68
2021/10/21 01:57:01;;;;;;;10.32;7.18;;;12.90;99.90;;;;;;5095055;28;20515;-68
2021/10/21 01:59:27;;;;;;;9.98;6.03;;;12.90;99.90;;;;;;5098662;28;20630;-68
2021/10/21 02:01:53;;;;;;;9.90;6.15;;;12.90;99.90;;;;;;5098910;27;20043;-68
2021/10/21 02:04:18;;;;;;;8.88;4.55;;;12.90;99.90;;;;;;5082769;28;20052;-68
2021/10/21 02:06:44;;;;;;;11.00;5.70;;;12.80;99.90;;;;;;5097790;27;20042;-68
2021/10/21 02:09:09;;;;;;;8.82;4.05;;;12.80;99.90;;;;;;5097822;28;20996;-68
2021/10/21 02:11:35;;;;;;;10.75;4.68;;;12.80;99.90;;;;;;5098643;27;20032;-68
2021/10/21 02:14:01;;;;;;;6.75;3.42;;;12.80;99.90;;;;;;5097725;27;20039;-68
2021/10/21 02:16:26;;;;;;;8.73;3.70;;;12.90;99.90;;;;;;5128806;27;20144;-68
2021/10/21 02:18:53;;;;;;;6.18;3.63;;;12.90;99.90;;;;;;5097829;28;20044;-68
2021/10/21 02:21:20;;;;;;;4.85;2.70;;;13.00;99.90;;;;;;5098575;27;20119;-68
2021/10/21 02:23:45;;;;;;;3.83;2.45;;;13.00;99.90;;;;;;5100932;27;20626;-68
2021/10/21 02:26:11;;;;;;;5.32;2.67;;;13.10;99.90;;;;;;5102516;27;20039;-68
2021/10/21 02:28:37;;;;;;;5.18;1.27;;;13.20;99.90;;;;;;5095106;28;20044;-68
2021/10/21 02:31:03;;;;;;;3.20;0.80;;;13.10;99.90;;;;;;5101556;28;20529;-68
2021/10/21 02:33:28;;;;;;;2.38;0.40;;;12.90;99.90;;;;;;5131156;27;20134;-68
2021/10/21 02:35:54;;;;;;;1.73;0.30;;;12.80;99.90;;;;;;5103332;28;20118;-67
2021/10/21 02:38:20;;;;;;;3.45;0.47;;;12.70;99.90;;;;;;5103355;27;20035;-67
2021/10/21 02:40:45;;;;;;;4.70;0.30;;;12.50;99.90;;;;;;5106209;28;20047;-67
2021/10/21 02:43:12;;;;;;;3.13;0.30;;;12.40;99.90;;;;;;5088464;28;20048;-67
2021/10/21 02:45:39;;;;;;;4.93;0.30;;;12.30;99.90;;;;;;5100037;28;20105;-67
2021/10/21 02:48:05;;;;;;;1.75;0.28;;;12.20;99.90;;;;;;5100934;27;20097;-67
2021/10/21 02:50:31;;;;;;;4.50;0.22;;;12.10;99.90;;;;;;5099487;28;20536;-67
2021/10/21 02:52:57;;;;;;;5.13;0.60;;;12.00;99.90;;;;;;5101951;27;20059;-67
2021/10/21 02:55:22;;;;;;;2.05;0.30;;;11.90;99.90;;;;;;5101188;27;20036;-67
2021/10/21 02:57:48;;;;;;;5.20;0.98;;;11.90;99.90;;;;;;5102519;27;20062;-67
2021/10/21 03:00:13;;;;;;;4.00;0.40;;;11.90;99.90;;;;;;5100656;28;20040;-67
2021/10/21 03:02:39;;;;;;;3.80;0.50;;;11.80;99.90;;;;;;5098844;28;20169;-68
2021/10/21 03:05:06;;;;;;;3.97;0.57;;;11.80;99.90;;;;;;5096844;27;20055;-68
2021/10/21 03:07:31;;;;;;;5.28;0.60;;;11.80;99.90;;;;;;5100370;27;20043;-67
2021/10/21 03:09:57;;;;;;;3.38;0.50;;;11.80;99.90;;;;;;5096817;28;20036;-68
2021/10/21 03:12:22;;;;;;;5.80;0.80;;;11.80;99.90;;;;;;5101340;27;20127;-68
2021/10/21 03:14:48;;;;;;;5.10;0.63;;;11.70;99.90;;;;;;5103819;27;20036;-67
2021/10/21 03:17:14;;;;;;;4.85;1.10;;;11.70;99.90;;;;;;5103020;27;20139;-67
2021/10/21 03:19:40;;;;;;;4.15;0.57;;;11.70;99.90;;;;;;5096079;28;20036;-67
2021/10/21 03:22:05;;;;;;;4.32;0.40;;;11.70;99.90;;;;;;5101093;27;20067;-67
2021/10/21 03:24:31;;;;;;;4.38;0.35;;;11.70;99.90;;;;;;5108254;27;20032;-67
2021/10/21 03:26:57;;;;;;;5.10;0.40;;;11.70;99.90;;;;;;5099490;28;20490;-67
2021/10/21 03:29:28;;;;;;;6.38;1.92;;;11.70;99.90;;;;;;5098785;27;20132;-67
2021/10/21 03:31:54;;;;;;;5.20;0.52;;;11.80;99.90;;;;;;5126939;27;20040;-67
2021/10/21 03:34:19;;;;;;;4.95;0.70;;;11.80;99.90;;;;;;5102348;27;20035;-67
2021/10/21 03:36:45;;;;;;;6.32;0.50;;;11.70;99.90;;;;;;5097621;27;20036;-67
2021/10/21 03:39:11;;;;;;;20.90;2.63;;;11.70;99.90;;;;;;5099478;27;20042;-67
2021/10/21 03:41:37;;;;;;;3.65;0.70;;;11.70;99.90;;;;;;5082908;28;20493;-67
2021/10/21 03:44:02;;;;;;;3.15;0.40;;;11.70;99.90;;;;;;5102226;27;20028;-68
2021/10/21 03:46:28;;;;;;;3.63;0.38;;;11.70;99.90;;;;;;5100670;27;20401;-68
2021/10/21 03:48:54;;;;;;;5.85;0.60;;;11.70;99.90;;;;;;5102842;27;20036;-68
2021/10/21 03:51:19;;;;;;;8.45;1.77;;;11.70;99.90;;;;;;5100075;27;20059;-68
2021/10/21 03:53:45;;;;;;;1.50;0.40;;;11.70;99.90;;;;;;5100305;27;20118;-68
2021/10/21 03:56:10;;;;;;;5.57;0.65;;;11.70;99.90;;;;;;5098969;27;20130;-69
2021/10/21 03:58:36;;;;;;;4.20;0.40;;;11.70;99.90;;;;;;5098721;27;20130;-69
2021/10/21 04:01:03;;;;;;;4.25;0.43;;;11.70;99.90;;;;;;5103622;27;20027;-68
2021/10/21 04:03:28;;;;;;;5.10;0.40;;;11.70;99.90;;;;;;5103592;28;20050;-68
2021/10/21 04:05:55;;;;;;;3.83;0.57;;;11.70;99.90;;;;;;5099912;28;20053;-69
2021/10/21 04:08:20;;;;;;;5.65;0.35;;;11.60;99.90;;;;;;5102606;27;20050;-68
2021/10/21 04:10:46;;;;;;;9.07;0.35;;;11.60;99.90;;;;;;5098655;28;20044;-68
2021/10/21 04:13:12;;;;;;;1.08;0.25;;;11.60;99.90;;;;;;5104192;28;20118;-68
2021/10/21 04:15:39;;;;;;;3.50;0.43;;;11.50;99.90;;;;;;5101993;28;20036;-68
2021/10/21 04:18:05;;;;;;;3.03;0.50;;;11.40;99.90;;;;;;5101846;28;20486;-68
2021/10/21 04:20:30;;;;;;;6.18;0.32;;;11.40;99.90;;;;;;5100251;28;20080;-68
2021/10/21 04:22:56;;;;;;;3.65;0.50;;;11.40;99.90;;;;;;5100381;28;20050;-68
2021/10/21 04:25:22;;;;;;;3.55;0.43;;;11.30;99.90;;;;;;5100284;28;20035;-68
2021/10/21 04:27:48;;;;;;;1.90;0.40;;;11.40;99.90;;;;;;5103960;27;20040;-68
2021/10/21 04:30:13;;;;;;;4.35;0.47;;;11.40;99.90;;;;;;5102738;28;20588;-68
2021/10/21 04:32:40;;;;;;;7.95;0.70;;;11.30;99.90;;;;;;5099701;28;20047;-68
2021/10/21 04:35:06;;;;;;;4.57;0.60;;;11.30;99.90;;;;;;5098017;27;20561;-68
2021/10/21 04:37:32;;;;;;;5.10;0.68;;;11.30;99.90;;;;;;5100304;28;20054;-68
2021/10/21 04:39:58;;;;;;;7.97;0.68;;;11.20;99.90;;;;;;5101088;28;20051;-68
2021/10/21 04:42:23;;;;;;;6.13;0.60;;;11.30;99.90;;;;;;5098443;28;20044;-68
2021/10/21 04:44:49;;;;;;;3.55;0.40;;;11.20;99.90;;;;;;5100523;28;20517;-68
2021/10/21 04:47:15;;;;;;;1.02;0.20;;;11.10;99.90;;;;;;5129706;27;20709;-68
2021/10/21 04:49:41;;;;;;;3.25;0.10;;;11.10;99.90;;;;;;5098703;28;20040;-68
2021/10/21 04:52:06;;;;;;;2.35;0.13;;;10.90;99.90;;;;;;5102381;28;20111;-68
2021/10/21 04:54:32;;;;;;;1.48;0.30;;;10.80;99.90;;;;;;5127958;27;20040;-68
2021/10/21 04:56:57;;;;;;;3.40;0.20;;;10.80;99.90;;;;;;5099622;28;20484;-68
2021/10/21 04:59:23;;;;;;;2.13;0.20;;;10.70;99.90;;;;;;5096038;28;20032;-68
2021/10/21 05:01:49;;;;;;;2.17;0.20;;;10.70;99.90;;;;;;5102649;28;20078;-68
2021/10/21 05:04:14;;;;;;;2.33;0.30;;;10.70;99.90;;;;;;5098949;28;20518;-68
2021/10/21 05:06:40;;;;;;;1.95;0.20;;;10.60;99.90;;;;;;5099868;28;20054;-68
2021/10/21 05:09:06;;;;;;;3.92;0.20;;;10.60;99.90;;;;;;5104135;28;20042;-68
2021/10/21 05:11:31;;;;;;;3.17;0.50;;;10.60;99.90;;;;;;5104258;28;20056;-68
2021/10/21 05:13:57;;;;;;;6.07;0.40;;;10.60;99.90;;;;;;5096511;28;20092;-68
2021/10/21 05:16:22;;;;;;;4.15;0.38;;;10.60;99.90;;;;;;5103864;28;20047;-68
2021/10/21 05:18:48;;;;;;;5.07;1.05;;;10.60;99.90;;;;;;5103518;28;20485;-68
2021/10/21 05:21:13;;;;;;;3.67;0.40;;;10.60;99.90;;;;;;5101945;28;20480;-68
2021/10/21 05:23:39;;;;;;;1.65;0.35;;;10.60;99.90;;;;;;5094348;28;20163;-68
2021/10/21 05:26:05;;;;;;;1.92;0.30;;;10.60;99.90;;;;;;5095039;28;20773;-68
2021/10/21 05:28:30;;;;;;;1.38;0.30;;;10.50;99.90;;;;;;5095493;28;20043;-68
2021/10/21 05:30:56;;;;;;;1.35;0.20;;;10.50;99.90;;;;;;5095661;28;20040;-68
2021/10/21 05:33:26;;;;;;;4.88;0.45;;;10.50;99.90;;;;;;5097412;28;20092;-68
2021/10/21 05:35:52;;;;;;;1.48;0.40;;;10.40;99.90;;;;;;5101572;28;20698;-68
2021/10/21 05:38:17;;;;;;;4.32;0.65;;;10.40;99.90;;;;;;5098667;28;20062;-68
2021/10/21 05:40:43;;;;;;;2.78;0.30;;;10.40;99.90;;;;;;5102559;28;20046;-68
2021/10/21 05:43:08;;;;;;;3.15;0.40;;;10.40;99.90;;;;;;5104422;28;20130;-68
2021/10/21 05:45:34;;;;;;;6.10;0.50;;;10.30;99.90;;;;;;5105585;27;20081;-68
2021/10/21 05:48:00;;;;;;;4.20;0.40;;;10.20;99.90;;;;;;5104450;28;20412;-68
2021/10/21 05:50:25;;;;;;;2.25;0.20;;;10.20;99.90;;;;;;5105285;28;20031;-68
2021/10/21 05:52:51;;;;;;;3.88;0.50;;;10.20;99.90;;;;;;5101747;28;20036;-68
2021/10/21 05:55:17;;;;;;;4.43;0.30;;;10.20;99.90;;;;;;5108462;28;20651;-68
2021/10/21 05:57:43;;;;;;;1.88;0.25;;;10.20;99.90;;;;;;5100716;28;20035;-68
2021/10/21 06:00:09;;;;;;;1.92;0.30;;;10.20;99.90;;;;;;5103186;28;20032;-68
2021/10/21 06:02:36;;;;;;;2.72;0.30;;;10.10;99.90;;;;;;5103130;27;20044;-68
2021/10/21 06:05:05;;;;;;;3.90;0.63;;;10.10;99.90;;;;;;5104677;27;20058;-68
2021/10/21 06:07:31;;;;;;;3.13;0.20;;;10.00;99.90;;;;;;5108350;27;20042;-68
2021/10/21 06:09:58;;;;;;;5.30;0.38;;;10.10;99.90;;;;;;5108267;28;20035;-68
2021/10/21 06:12:24;;;;;;;3.33;0.60;;;10.00;99.90;;;;;;5104073;27;20032;-68
2021/10/21 06:14:51;;;;;;;1.35;0.13;;;10.00;99.90;;;;;;5103851;28;20036;-68
2021/10/21 06:17:17;;;;;;;3.47;0.63;;;10.00;99.90;;;;;;5104897;27;20719;-68
2021/10/21 06:19:43;;;;;;;1.88;0.50;;;10.00;99.90;;;;;;5101794;27;20050;-68
2021/10/21 06:22:11;;;;;;;3.78;0.30;;;10.00;99.90;;;;;;5101145;27;20048;-68
2021/10/21 06:24:36;;;;;;;4.22;0.82;;;10.00;99.90;;;;;;5103821;28;20035;-68
2021/10/21 06:27:02;;;;;;;3.00;0.35;;;10.00;99.90;;;;;;5099670;28;20058;-68
2021/10/21 06:29:28;;;;;;;6.47;0.40;;;10.00;99.90;;;;;;5103269;27;20042;-68
2021/10/21 06:31:54;;;;;;;9.60;0.65;;;10.00;99.90;;;;;;5101060;28;20036;-67
2021/10/21 06:34:20;;;;;;;4.97;0.40;;;10.00;99.90;;;;;;5101620;28;20067;-68
2021/10/21 06:36:46;;;;;;;6.68;0.57;;;10.10;99.90;;;;;;5102729;28;20132;-68
2021/10/21 06:39:12;;;;;;;5.88;0.90;;;10.10;99.90;;;;;;5100113;27;20421;-68
2021/10/21 06:41:38;;;;;;;7.07;0.50;;;10.10;99.90;;;;;;5102683;28;20072;-68
2021/10/21 06:44:07;;;;;;;8.40;0.70;;;10.10;99.90;;;;;;5106451;27;20032;-68
2021/10/21 06:46:34;;;;;;;8.52;1.05;;;10.20;99.90;;;;;;5101735;28;20173;-69
2021/10/21 06:49:11;;;;;;;10.52;1.25;;;10.20;99.90;;;;;;5105117;27;20020;-68
2021/10/21 06:51:37;;;;;;;9.88;0.98;;;10.20;99.90;;;;;;5128987;27;20049;-68
2021/10/21 06:54:03;;;;;;;7.55;1.00;;;10.30;99.90;;;;;;5106041;27;20028;-68
2021/10/21 06:56:28;;;;;;;8.60;0.57;;;10.30;99.90;;;;;;5100134;28;20027;-68
2021/10/21 06:58:54;;;;;;;10.25;1.08;;;10.30;99.90;;;;;;5096492;28;20039;-68
2021/10/21 07:01:20;;;;;;;7.95;1.02;;;10.30;99.90;;;;;;5098893;28;20054;-68
2021/10/21 07:03:46;;;;;;;16.17;1.23;;;10.30;99.90;;;;;;5131486;27;20047;-68
2021/10/21 07:06:12;;;;;;;9.70;0.68;;;10.30;99.90;;;;;;5102038;28;20131;-68
2021/10/21 07:08:39;;;;;;;14.77;1.35;;;10.40;99.90;;;;;;5100216;28;20130;-68
2021/10/21 07:11:05;;;;;;;6.25;0.73;;;10.40;99.90;;;;;;5100073;28;20097;-68
2021/10/21 07:13:31;;;;;;;13.57;1.60;;;10.40;99.90;;;;;;5101845;28;20535;-68
2021/10/21 07:15:57;;;;;;;11.10;1.45;;;10.40;99.90;;;;;;5099174;28;20040;-68
2021/10/21 07:18:23;;;;;;;13.65;1.10;;;10.40;99.90;;;;;;5103195;28;20071;-68
2021/10/21 07:20:49;;;;;;;11.55;0.82;;;10.50;99.90;;;;;;5096144;28;20048;-68
2021/10/21 07:23:14;;;;;;;9.10;0.90;;;10.50;99.90;;;;;;5100319;28;20040;-68
2021/10/21 07:25:40;;;;;;;8.63;1.40;;;10.50;99.90;;;;;;5101137;28;20062;-69
2021/10/21 07:28:06;;;;;;;9.48;1.25;;;10.50;99.90;;;;;;5102351;28;20036;-68
2021/10/21 07:30:31;;;;;;;9.88;1.00;;;10.50;99.90;;;;;;5099957;28;20509;-68
2021/10/21 07:33:00;;;;;;;11.63;1.10;;;10.50;99.90;;;;;;5103439;28;20086;-68
2021/10/21 07:35:31;;;;;;;8.48;1.23;;;10.50;99.90;;;;;;5100690;28;20032;-68
2021/10/21 07:37:57;;;;;;;10.02;1.35;;;10.50;99.90;;;;;;5101934;28;20492;-68
2021/10/21 07:40:23;;;;;;;7.85;1.20;;;10.60;99.90;;;;;;5106543;27;20396;-68
2021/10/21 07:42:49;;;;;;;13.48;1.10;;;10.60;99.90;;;;;;5130932;27;20047;-68
2021/10/21 07:45:15;;;;;;;9.23;1.48;;;10.60;99.90;;;;;;5101272;27;20043;-69
2021/10/21 07:47:41;;;;;;;12.15;1.27;;;10.70;99.90;;;;;;5099431;27;20540;-69
2021/10/21 07:50:07;;;;;;;10.50;0.73;;;10.70;99.90;;;;;;5101813;28;20050;-68
2021/10/21 07:52:38;;;;;;;8.85;0.80;;;10.60;99.90;;;;;;5100823;27;20043;-69
2021/10/21 07:55:08;;;;;;;11.07;1.40;;;10.70;99.90;;;;;;5100808;27;20044;-68
2021/10/21 07:57:34;;;;;;;10.15;1.10;;;10.70;99.90;;;;;;5083125;28;20048;-68
2021/10/21 07:59:59;;;;;;;10.98;1.20;;;10.70;99.90;;;;;;5100348;28;20051;-68
2021/10/21 08:02:25;;;;;;;10.32;1.63;;;10.70;99.90;;;;;;5101983;28;20705;-68
2021/10/21 08:04:51;;;;;;;10.88;1.00;;;10.70;99.90;;;;;;5100314;28;20058;-68
2021/10/21 08:07:17;;;;;;;11.30;1.25;;;10.70;99.90;;;;;;5099385;28;20044;-68
2021/10/21 08:09:43;;;;;;;13.25;1.98;;;10.70;99.90;;;;;;5101918;28;20089;-68
2021/10/21 08:12:09;;;;;;;13.40;1.60;;;10.70;99.90;;;;;;5098260;28;20035;-68
2021/10/21 08:14:35;;;;;;;9.88;1.35;;;10.80;99.90;;;;;;5094323;28;20066;-68
2021/10/21 08:17:01;;;;;;;6.50;1.33;;;10.70;99.90;;;;;;5097919;27;20054;-68
2021/10/21 08:19:27;;;;;;;6.80;1.10;;;10.70;99.90;;;;;;5102250;28;20047;-68
2021/10/21 08:21:53;;;;;;;9.85;0.98;;;10.70;99.90;;;;;;5101576;27;20398;-68
2021/10/21 08:24:21;;;;;;;12.88;1.20;;;10.80;99.90;;;;;;5101978;28;20055;-68
2021/10/21 08:26:48;;;;;;;13.02;1.50;;;10.80;99.90;;;;;;5104457;27;20044;-68
2021/10/21 08:29:15;;;;;;;14.90;1.98;;;10.80;99.90;;;;;;5098906;28;20036;-68
2021/10/21 08:31:41;;;;;;;12.40;2.55;;;10.80;99.90;;;;;;5103848;27;20031;-69
2021/10/21 08:34:07;;;;;;;9.60;1.40;;;10.80;99.90;;;;;;5102146;28;20139;-69
2021/10/21 08:36:32;;;;;;;6.45;0.80;;;10.70;99.90;;;;;;5104245;28;20439;-69
2021/10/21 08:38:58;;;;;;;11.98;1.10;;;10.70;99.90;;;;;;5098916;28;20444;-69
2021/10/21 08:41:27;;;;;;;6.88;0.95;;;10.70;99.90;;;;;;5101405;28;20090;-68
2021/10/21 08:43:53;;;;;;;5.72;1.20;;;10.70;99.90;;;;;;5095481;28;20044;-68
2021/10/21 08:46:24;;;;;;;10.10;1.63;;;10.70;99.90;;;;;;5104500;28;20072;-69
2021/10/21 08:48:56;;;;;;;9.30;0.95;;;10.80;99.90;;;;;;5130586;27;20568;-68
2021/10/21 08:51:22;;;;;;;7.60;1.10;;;10.80;99.90;;;;;;5102496;28;20502;-68
2021/10/21 08:53:47;;;;;;;7.40;0.47;;;10.70;99.90;;;;;;5098269;28;20047;-69
2021/10/21 08:56:13;;;;;;;8.40;0.80;;;10.80;99.90;;;;;;5102773;28;20052;-68
2021/10/21 08:58:39;;;;;;;7.45;1.10;;;10.80;99.90;;;;;;5100719;28;20036;-68
2021/10/21 09:01:08;;;;;;;8.30;0.70;;;10.80;99.90;;;;;;5102151;28;20035;-69
2021/10/21 09:04:00;;;;;;;7.07;0.93;;;10.80;99.90;;;;;;5100391;28;20044;-68
2021/10/21 09:09:23;;;;;;;8.93;1.25;;;10.80;99.90;;;;;;5100015;28;20063;-68
2021/10/21 09:12:11;;;;;;;6.90;0.90;;;10.80;99.90;;;;;;5105091;28;20489;-68
2021/10/21 09:14:49;;;;;;;8.70;1.02;;;10.80;99.90;;;;;;5107131;28;20089;-68
2021/10/21 09:17:17;;;;;;;9.18;1.70;;;10.80;99.90;;;;;;5103185;27;20119;-68
2021/10/21 09:19:45;;;;;;;7.72;1.05;;;10.80;99.90;;;;;;5104317;28;20047;-68
2021/10/21 09:22:23;;;;;;;8.20;1.00;;;10.80;99.90;;;;;;5106421;27;20055;-68
2021/10/21 09:24:50;;;;;;;12.82;1.02;;;10.90;99.90;;;;;;5135816;27;20085;-68
2021/10/21 09:27:18;;;;;;;8.35;1.27;;;10.80;99.90;;;;;;5102736;27;20537;-68
2021/10/21 09:29:49;;;;;;;5.90;0.60;;;10.90;99.90;;;;;;5106712;27;20072;-68
2021/10/21 09:32:16;;;;;;;5.05;0.70;;;10.90;99.90;;;;;;5108763;27;20044;-68
2021/10/21 09:34:51;;;;;;;8.02;0.88;;;11.00;99.90;;;;;;5107489;27;20119;-68
2021/10/21 09:37:34;;;;;;;5.77;0.50;;;11.20;99.90;;;;;;5107465;27;20051;-68
2021/10/21 09:40:10;;;;;;;5.72;0.50;;;11.20;99.90;;;;;;5138020;27;20039;-68
2021/10/21 09:42:38;;;;;;;6.53;0.60;;;11.20;99.90;;;;;;5108150;27;20088;-68
2021/10/21 09:45:15;;;;;;;9.50;0.50;;;11.20;99.90;;;;;;5103210;27;20044;-68
2021/10/21 09:47:44;;;;;;;5.13;0.80;;;11.10;99.90;;;;;;5109935;27;20048;-68
2021/10/21 09:50:19;;;;;;;3.92;0.40;;;11.00;99.90;;;;;;5108225;27;20050;-68
2021/10/21 09:53:18;;;;;;;7.43;0.68;;;10.90;99.90;;;;;;5109486;27;20067;-69
2021/10/21 09:55:59;;;;;;;2.78;0.30;;;10.80;99.90;;;;;;5108071;28;20040;-68
2021/10/21 09:58:26;;;;;;;6.15;0.50;;;10.70;99.90;;;;;;5107495;27;20576;-68
2021/10/21 10:01:14;;;;;;;3.03;0.20;;;10.60;99.90;;;;;;5106434;27;20070;-68
2021/10/21 10:03:42;;;;;;;3.95;0.40;;;10.50;99.90;;;;;;5107075;27;20172;-68
2021/10/21 10:06:08;;;;;;;6.00;0.95;;;10.40;99.90;;;;;;5109763;27;20043;-68
2021/10/21 10:08:34;;;;;;;6.03;0.80;;;10.40;99.90;;;;;;5105239;27;20066;-68
2021/10/21 10:11:03;;;;;;;3.33;0.47;;;10.30;99.90;;;;;;5106997;27;20027;-68
2021/10/21 10:13:29;;;;;;;5.63;0.73;;;10.20;99.90;;;;;;5108382;27;20061;-68
2021/10/21 10:15:56;;;;;;;3.35;0.20;;;10.20;99.90;;;;;;5104517;27;20055;-68
2021/10/21 10:18:23;;;;;;;3.72;0.63;;;10.20;99.90;;;;;;5121785;27;20126;-68
2021/10/21 10:21:12;;;;;;;8.55;1.10;;;10.20;99.90;;;;;;5105126;27;20043;-69
2021/10/21 10:23:56;;;;;;;2.97;0.20;;;10.10;99.90;;;;;;5100190;28;20105;-68
2021/10/21 10:26:50;;;;;;;4.20;0.65;;;10.10;99.90;;;;;;5102493;27;20177;-68
2021/10/21 10:29:36;;;;;;;2.40;0.25;;;10.10;99.90;;;;;;5101170;27;20036;-68
2021/10/21 10:32:06;;;;;;;2.78;0.20;;;10.00;99.90;;;;;;5100146;27;20043;-68
2021/10/21 10:34:32;;;;;;;2.05;0.30;;;10.00;99.90;;;;;;5104222;28;20050;-68
2021/10/21 10:37:19;;;;;;;2.63;0.20;;;9.90;99.90;;;;;;5117223;27;20035;-68
2021/10/21 10:39:56;;;;;;;6.22;0.95;;;9.90;99.90;;;;;;5101077;28;20059;-68
2021/10/21 10:42:31;;;;;;;3.42;0.47;;;9.90;99.90;;;;;;5099081;27;20048;-68
2021/10/21 10:44:57;;;;;;;6.78;0.20;;;9.90;99.90;;;;;;5102145;27;20120;-68
2021/10/21 10:47:41;;;;;;;2.28;0.20;;;9.90;99.90;;;;;;5100779;27;20505;-68
2021/10/21 10:50:08;;;;;;;2.92;0.30;;;9.90;99.90;;;;;;5101314;27;20440;-68
2021/10/21 10:52:54;;;;;;;2.40;0.38;;;9.90;99.90;;;;;;5105394;27;20043;-68
2021/10/21 10:55:22;;;;;;;2.05;0.50;;;10.00;99.90;;;;;;5101535;27;20116;-68
2021/10/21 10:57:48;;;;;;;7.43;0.68;;;9.90;99.90;;;;;;5101894;28;20060;-68
2021/10/21 11:00:47;;;;;;;4.35;0.28;;;9.90;99.90;;;;;;5103602;27;20047;-68
2021/10/21 11:03:15;;;;;;;2.60;0.30;;;9.90;99.90;;;;;;5098543;27;20114;-68
2021/10/21 11:05:44;;;;;;;2.13;0.20;;;9.90;99.90;;;;;;5103736;27;20488;-68
2021/10/21 11:08:11;;;;;;;4.63;0.40;;;9.90;99.90;;;;;;5103876;28;20048;-68
2021/10/21 11:10:45;;;;;;;2.35;0.28;;;9.90;99.90;;;;;;5098377;28;20036;-68
2021/10/21 11:13:29;;;;;;;4.82;0.40;;;10.00;99.90;;;;;;5104756;27;20119;-68
2021/10/21 11:15:56;;;;;;;2.78;0.30;;;10.00;99.90;;;;;;5104987;27;20115;-68
2021/10/21 11:18:48;;;;;;;8.55;0.43;;;10.00;99.90;;;;;;5100554;28;20071;-68
2021/10/21 11:21:54;;;;;;;4.50;1.23;;;10.10;99.90;;;;;;5102098;27;20047;-68
2021/10/21 11:27:11;;;;;;;6.88;0.60;;;10.20;99.90;;;;;;5101667;28;20081;-68
2021/10/21 11:29:38;;;;;;;6.57;0.40;;;10.30;99.90;;;;;;5101915;27;20047;-68
2021/10/21 11:32:08;;;;;;;4.68;0.70;;;10.30;99.90;;;;;;5101161;27;20039;-68
2021/10/21 11:34:35;;;;;;;5.15;0.80;;;10.20;99.90;;;;;;5101501;27;20122;-68
2021/10/21 11:37:00;;;;;;;7.78;0.75;;;10.20;99.90;;;;;;5102496;28;20036;-68
2021/10/21 11:39:38;;;;;;;8.73;1.08;;;10.20;99.90;;;;;;5103331;27;20031;-68
2021/10/21 11:42:05;;;;;;;4.22;0.73;;;10.20;99.90;;;;;;5101924;28;20035;-68
2021/10/21 11:44:31;;;;;;;10.38;0.90;;;10.10;99.90;;;;;;5101444;27;20382;-68
2021/10/21 11:47:02;;;;;;;6.38;0.93;;;10.10;99.90;;;;;;5104378;28;20050;-68
2021/10/21 11:49:29;;;;;;;9.23;0.82;;;10.00;99.90;;;;;;5104298;27;20071;-68
2021/10/21 11:52:03;;;;;;;9.77;1.00;;;10.10;99.90;;;;;;5100832;27;20492;-68
2021/10/21 11:54:28;;;;;;;9.00;0.70;;;10.00;99.90;;;;;;5106456;27;20046;-68
2021/10/21 11:56:54;;;;;;;8.70;0.93;;;10.10;99.90;;;;;;5103972;28;20035;-68
2021/10/21 11:59:37;;;;;;;10.50;1.25;;;10.00;99.90;;;;;;5102506;28;20035;-68
2021/10/21 12:02:15;;;;;;;7.25;0.70;;;10.00;99.90;;;;;;5102440;28;20115;-68
2021/10/21 12:04:42;;;;;;;8.98;0.70;;;10.00;99.90;;;;;;5102798;28;20497;-68
2021/10/21 12:07:09;;;;;;;11.30;2.15;;;10.00;99.90;;;;;;5134285;27;20048;-68
2021/10/21 12:09:36;;;;;;;11.02;1.17;;;9.90;99.90;;;;;;5103655;28;20066;-68
2021/10/21 12:12:05;;;;;;;7.35;0.60;;;9.90;99.90;;;;;;5102046;27;20126;-68
2021/10/21 12:14:32;;;;;;;6.97;1.15;;;9.90;99.90;;;;;;5103389;28;20087;-68
2021/10/21 12:16:58;;;;;;;7.05;1.02;;;9.80;99.90;;;;;;5100722;28;20396;-68
2021/10/21 12:19:24;;;;;;;9.50;1.65;;;9.70;99.90;;;;;;5104229;27;20087;-68
2021/10/21 12:21:51;;;;;;;5.82;0.88;;;9.70;99.90;;;;;;5103345;28;20047;-68
2021/10/21 12:24:21;;;;;;;7.70;0.80;;;9.70;99.90;;;;;;5103352;27;20114;-68
2021/10/21 12:27:20;;;;;;;11.60;0.68;;;9.70;99.90;;;;;;5103069;28;20044;-68
2021/10/21 12:29:46;;;;;;;11.10;1.17;;;9.80;99.90;;;;;;5095120;28;20117;-68
2021/10/21 12:32:15;;;;;;;6.60;0.60;;;9.70;99.90;;;;;;5095929;28;20043;-68
2021/10/21 12:34:41;;;;;;;8.50;0.65;;;9.80;99.90;;;;;;5093095;28;20046;-68
2021/10/21 12:37:18;;;;;;;6.45;0.82;;;9.80;99.90;;;;;;5096968;28;20023;-68
2021/10/21 12:39:44;;;;;;;5.35;0.82;;;9.90;99.90;;;;;;5093090;28;20184;-68
2021/10/21 12:42:21;;;;;;;6.18;0.80;;;9.80;99.90;;;;;;5095231;27;20722;-68
2021/10/21 12:44:55;;;;;;;9.43;1.70;;;9.80;99.90;;;;;;5095375;28;20040;-68
2021/10/21 12:47:24;;;;;;;5.43;0.80;;;9.80;99.90;;;;;;5095994;28;20558;-68
2021/10/21 12:50:06;;;;;;;5.38;0.70;;;9.90;99.90;;;;;;5125466;27;20043;-68
2021/10/21 12:52:43;;;;;;;5.53;0.80;;;9.90;99.90;;;;;;5095320;28;20039;-68
2021/10/21 12:55:21;;;;;;;7.82;0.77;;;9.90;99.90;;;;;;5095217;28;20502;-68
2021/10/21 12:57:50;;;;;;;7.68;0.75;;;9.90;99.90;;;;;;5094948;28;20477;-68